createdAt,value
2018-08-24T00:00:40.688Z,78.78
2018-08-24T00:03:44.330Z,78.61
2018-08-24T00:06:48.043Z,78.87
2018-08-24T00:09:52.198Z,78.51
2018-08-24T00:12:55.823Z,78.81
2018-08-24T00:15:59.457Z,78.86
2018-08-24T00:19:03.018Z,78.55
2018-08-24T00:22:06.696Z,78.74
2018-08-24T00:25:10.437Z,78.96
2018-08-24T00:28:14.072Z,79.47
2018-08-24T00:31:17.733Z,80.04
2018-08-24T00:34:21.418Z,79.84
2018-08-24T00:37:25.093Z,79.80
2018-08-24T00:40:28.677Z,79.77
2018-08-24T00:43:32.283Z,79.42
2018-08-24T00:46:35.873Z,79.46
2018-08-24T00:49:39.522Z,79.76
2018-08-24T00:52:43.189Z,80.35
2018-08-24T00:55:46.837Z,80.81
2018-08-24T00:58:50.453Z,81.03
2018-08-24T01:01:54.111Z,80.67
2018-08-24T01:04:57.749Z,80.89
2018-08-24T01:08:07.466Z,80.94
2018-08-24T01:11:10.997Z,80.60
2018-08-24T01:14:14.691Z,79.86
2018-08-24T01:17:23.575Z,79.92
2018-08-24T01:20:30.256Z,79.79
2018-08-24T01:23:34.907Z,80.09
2018-08-24T01:26:38.548Z,80.02
2018-08-24T01:29:43.283Z,79.91
2018-08-24T01:32:46.969Z,79.70
2018-08-24T01:35:50.788Z,79.64
2018-08-24T01:38:54.407Z,79.45
2018-08-24T01:41:58.368Z,79.29
2018-08-24T01:45:01.998Z,78.84
2018-08-24T01:48:05.898Z,77.90
2018-08-24T01:51:09.536Z,77.61
2018-08-24T01:54:13.223Z,77.95
2018-08-24T01:57:16.863Z,78.20
2018-08-24T02:00:20.453Z,79.00
2018-08-24T02:03:24.154Z,78.78
2018-08-24T02:06:27.878Z,79.30
2018-08-24T02:09:31.493Z,79.29
2018-08-24T02:12:40.419Z,79.61
2018-08-24T02:15:45.259Z,79.74
2018-08-24T02:18:53.991Z,79.88
2018-08-24T02:22:02.887Z,80.04
2018-08-24T02:25:06.659Z,79.96
2018-08-24T02:28:10.367Z,80.12
2018-08-24T02:31:14.177Z,80.58
2018-08-24T02:34:17.808Z,80.46
2018-08-24T02:37:21.420Z,81.02
2018-08-24T02:40:25.084Z,80.84
2018-08-24T02:43:28.891Z,81.34
2018-08-24T02:46:32.547Z,81.50
2018-08-24T02:49:36.209Z,81.89
2018-08-24T02:52:39.942Z,82.21
2018-08-24T02:55:43.554Z,82.67
2018-08-24T02:58:47.279Z,82.79
2018-08-24T03:01:51.784Z,84.15
2018-08-24T03:04:55.357Z,83.94
2018-08-24T03:07:58.975Z,84.21
2018-08-24T03:11:02.753Z,85.74
2018-08-24T03:14:06.383Z,86.64
2018-08-24T03:17:15.239Z,86.66
2018-08-24T03:20:18.833Z,87.48
2018-08-24T03:23:22.455Z,87.16
2018-08-24T03:26:26.084Z,87.38
2018-08-24T03:29:29.757Z,87.86
2018-08-24T03:32:33.420Z,88.18
2018-08-24T03:35:37.086Z,87.96
2018-08-24T03:38:40.732Z,88.17
2018-08-24T03:41:44.361Z,88.81
2018-08-24T03:44:47.940Z,88.48
2018-08-24T03:47:51.579Z,88.47
2018-08-24T03:50:55.195Z,87.38
2018-08-24T03:53:58.797Z,86.89
2018-08-24T03:57:02.384Z,87.59
2018-08-24T04:00:06.065Z,87.91
2018-08-24T04:03:09.645Z,88.05
2018-08-24T04:06:13.304Z,88.10
2018-08-24T04:09:17.809Z,87.81
2018-08-24T04:12:21.394Z,88.29
2018-08-24T04:15:25.245Z,88.04
2018-08-24T04:18:28.947Z,88.46
2018-08-24T04:21:32.565Z,88.34
2018-08-24T04:24:36.160Z,87.73
2018-08-24T04:27:40.344Z,87.35
2018-08-24T04:30:43.946Z,86.24
2018-08-24T04:33:47.698Z,85.53
2018-08-24T04:36:51.428Z,85.18
2018-08-24T04:39:55.049Z,84.45
2018-08-24T04:42:58.648Z,84.50
2018-08-24T04:46:02.285Z,84.21
2018-08-24T04:49:06.053Z,84.34
2018-08-24T04:52:09.654Z,83.34
2018-08-24T04:55:13.263Z,82.40
2018-08-24T04:58:16.936Z,82.51
2018-08-24T05:01:20.803Z,82.49
2018-08-24T05:04:24.587Z,82.32
2018-08-24T05:07:28.150Z,81.47
2018-08-24T05:10:31.745Z,78.46
2018-08-24T05:13:35.338Z,76.38
2018-08-24T05:16:38.890Z,76.53
2018-08-24T05:19:42.475Z,76.49
2018-08-24T05:22:46.152Z,74.47
2018-08-24T05:25:49.718Z,74.42
2018-08-24T05:28:53.400Z,74.63
2018-08-24T05:31:56.999Z,73.62
2018-08-24T05:35:00.605Z,74.04
2018-08-24T05:38:04.276Z,73.40
2018-08-24T05:41:07.929Z,73.41
2018-08-24T05:44:11.474Z,72.54
2018-08-24T05:47:15.059Z,69.97
2018-08-24T05:50:18.709Z,67.59
2018-08-24T05:53:22.434Z,66.08
2018-08-24T05:56:26.104Z,65.29
2018-08-24T05:59:29.709Z,67.49
2018-08-24T06:02:33.355Z,68.18
2018-08-24T06:05:41.447Z,69.47
2018-08-24T06:08:45.106Z,71.27
2018-08-24T06:11:48.908Z,72.40
2018-08-24T06:14:52.494Z,73.43
2018-08-24T06:17:57.064Z,72.97
2018-08-24T06:21:00.876Z,71.92
2018-08-24T06:24:04.800Z,73.17
2018-08-24T06:27:08.505Z,73.71
2018-08-24T06:30:12.215Z,73.18
2018-08-24T06:33:16.012Z,73.09
2018-08-24T06:36:19.680Z,72.11
2018-08-24T06:39:23.366Z,71.60
2018-08-24T06:42:26.995Z,72.01
2018-08-24T06:45:30.656Z,70.55
2018-08-24T06:48:34.324Z,69.44
2018-08-24T06:51:38.075Z,69.96
2018-08-24T06:54:41.757Z,67.52
2018-08-24T06:57:45.422Z,66.85
2018-08-24T07:00:49.042Z,66.82
2018-08-24T07:03:53.545Z,65.90
2018-08-24T07:06:57.157Z,64.73
2018-08-24T07:10:00.776Z,65.62
2018-08-24T07:13:04.603Z,65.86
2018-08-24T07:16:08.335Z,64.18
2018-08-24T07:19:11.940Z,65.25
2018-08-24T07:22:15.556Z,66.79
2018-08-24T07:25:19.278Z,67.15
2018-08-24T07:28:22.873Z,68.73
2018-08-24T07:31:26.566Z,68.00
2018-08-24T07:34:30.407Z,69.28
2018-08-24T07:37:34.127Z,69.05
2018-08-24T07:40:37.854Z,67.78
2018-08-24T07:43:41.596Z,70.39
2018-08-24T07:46:45.328Z,68.66
2018-08-24T07:49:49.251Z,68.16
2018-08-24T07:52:52.893Z,67.89
2018-08-24T07:55:56.642Z,67.20
2018-08-24T07:59:01.660Z,67.54
2018-08-24T08:02:05.361Z,67.80
2018-08-24T08:05:09.137Z,67.97
2018-08-24T08:08:12.851Z,66.38
2018-08-24T08:11:16.582Z,67.62
2018-08-24T08:14:20.256Z,68.41
2018-08-24T08:17:23.962Z,67.73
2018-08-24T08:20:27.714Z,66.80
2018-08-24T08:23:31.556Z,67.77
2018-08-24T08:26:35.421Z,68.22
2018-08-24T08:29:44.369Z,70.40
2018-08-24T08:32:48.067Z,70.26
2018-08-24T08:35:51.823Z,69.82
2018-08-24T08:38:55.517Z,71.17
2018-08-24T08:41:59.218Z,70.34
2018-08-24T08:45:02.963Z,70.41
2018-08-24T08:48:06.737Z,69.98
2018-08-24T08:51:10.638Z,70.19
2018-08-24T08:54:14.412Z,69.33
2018-08-24T08:57:18.083Z,71.30
2018-08-24T09:00:21.737Z,71.18
2018-08-24T09:03:25.449Z,70.81
2018-08-24T09:06:29.136Z,71.21
2018-08-24T09:09:32.772Z,70.69
2018-08-24T09:12:36.652Z,71.62
2018-08-24T09:15:40.409Z,73.94
2018-08-24T09:18:49.299Z,76.94
2018-08-24T09:21:58.257Z,84.23
2018-08-24T09:25:07.137Z,89.04
2018-08-24T09:28:15.953Z,89.20
2018-08-24T09:31:23.997Z,89.02
2018-08-24T09:34:27.777Z,89.58
2018-08-24T09:37:36.098Z,90.50
2018-08-24T09:40:44.920Z,89.68
2018-08-24T09:43:53.743Z,88.78
2018-08-24T09:47:02.621Z,87.61
2018-08-24T09:50:12.029Z,86.91
2018-08-24T09:53:20.924Z,85.81
2018-08-24T09:56:24.719Z,85.89
2018-08-24T09:59:28.480Z,85.36
2018-08-24T10:02:44.580Z,84.19
2018-08-24T10:05:53.322Z,84.26
2018-08-24T10:08:57.138Z,81.93
2018-08-24T10:12:00.955Z,81.22
2018-08-24T10:15:06.308Z,81.31
2018-08-24T10:18:10.115Z,79.70
2018-08-24T10:21:13.802Z,79.38
2018-08-24T10:24:17.499Z,77.11
2018-08-24T10:27:21.114Z,78.13
2018-08-24T10:30:25.757Z,77.90
2018-08-24T10:33:29.437Z,74.93
2018-08-24T10:36:33.225Z,73.14
2018-08-24T10:39:36.893Z,73.15
2018-08-24T10:42:40.689Z,72.93
2018-08-24T10:45:44.428Z,74.63
2018-08-24T10:48:48.277Z,73.77
2018-08-24T10:51:51.992Z,68.84
2018-08-24T10:54:55.761Z,68.68
2018-08-24T10:57:59.628Z,70.82
2018-08-24T11:01:03.384Z,71.24
2018-08-24T11:04:07.129Z,69.86
2018-08-24T11:07:10.880Z,68.79
2018-08-24T11:10:14.590Z,64.87
2018-08-24T11:13:18.254Z,66.79
2018-08-24T11:16:21.900Z,63.53
2018-08-24T11:19:25.598Z,64.61
2018-08-24T11:22:29.343Z,63.61
2018-08-24T11:25:33.027Z,63.09
2018-08-24T11:28:36.855Z,58.34
2018-08-24T11:31:40.584Z,57.45
2018-08-24T11:34:44.360Z,56.47
2018-08-24T11:37:48.103Z,56.77
2018-08-24T11:40:51.719Z,55.34
2018-08-24T11:43:55.403Z,51.37
2018-08-24T11:46:59.060Z,48.77
2018-08-24T11:50:02.746Z,50.11
2018-08-24T11:53:06.769Z,47.68
2018-08-24T11:56:10.405Z,47.07
2018-08-24T11:59:14.059Z,48.00
2018-08-24T12:02:17.705Z,48.60
2018-08-24T12:05:21.363Z,48.28
2018-08-24T12:08:25.152Z,47.46
2018-08-24T12:11:28.796Z,46.62
2018-08-24T12:14:32.449Z,46.92
2018-08-24T12:17:37.636Z,47.68
2018-08-24T12:20:41.396Z,46.52
2018-08-24T12:23:45.009Z,47.64
2018-08-24T12:26:48.700Z,47.14
2018-08-24T12:29:52.365Z,45.17
2018-08-24T12:32:56.045Z,46.46
2018-08-24T12:35:59.725Z,49.94
2018-08-24T12:39:03.686Z,45.15
2018-08-24T12:42:08.359Z,43.57
2018-08-24T12:45:12.231Z,44.10
2018-08-24T12:48:15.869Z,43.22
2018-08-24T12:51:19.554Z,42.68
2018-08-24T12:54:23.275Z,44.08
2018-08-24T12:57:27.909Z,44.69
2018-08-24T13:00:31.616Z,45.70
2018-08-24T13:03:35.281Z,43.02
2018-08-24T13:06:38.982Z,42.07
2018-08-24T13:09:42.660Z,42.80
2018-08-24T13:12:46.325Z,40.96
2018-08-24T13:15:50.204Z,41.72
2018-08-24T13:18:53.951Z,43.25
2018-08-24T13:21:57.634Z,39.88
2018-08-24T13:25:01.321Z,41.12
2018-08-24T13:28:05.057Z,41.11
2018-08-24T13:31:08.776Z,42.24
2018-08-24T13:34:12.470Z,41.86
2018-08-24T13:37:16.353Z,42.46
2018-08-24T13:40:19.949Z,41.00
2018-08-24T13:43:23.624Z,39.13
2018-08-24T13:46:27.533Z,36.80
2018-08-24T13:49:31.207Z,36.65
2018-08-24T13:52:34.873Z,36.67
2018-08-24T13:55:38.642Z,36.58
2018-08-24T13:58:42.288Z,36.04
2018-08-24T14:01:46.138Z,36.12
2018-08-24T14:04:49.795Z,35.92
2018-08-24T14:07:53.550Z,37.02
2018-08-24T14:10:57.215Z,36.77
2018-08-24T14:14:00.895Z,37.70
2018-08-24T14:17:04.615Z,37.94
2018-08-24T14:20:08.525Z,40.23
2018-08-24T14:23:12.159Z,40.42
2018-08-24T14:26:15.980Z,40.77
2018-08-24T14:29:19.866Z,39.53
2018-08-24T14:32:23.549Z,39.60
2018-08-24T14:35:27.240Z,39.14
2018-08-24T14:38:30.975Z,39.03
2018-08-24T14:41:34.734Z,37.31
2018-08-24T14:44:38.416Z,36.59
2018-08-24T14:47:42.355Z,37.40
2018-08-24T14:50:45.939Z,36.42
2018-08-24T14:53:49.896Z,36.51
2018-08-24T14:56:53.549Z,37.12
2018-08-24T14:59:57.321Z,35.77
2018-08-24T15:03:01.002Z,35.76
2018-08-24T15:06:04.676Z,35.16
2018-08-24T15:09:10.357Z,36.80
2018-08-24T15:12:14.011Z,36.89
2018-08-24T15:15:17.676Z,38.38
2018-08-24T15:18:21.387Z,38.59
2018-08-24T15:21:25.006Z,37.41
2018-08-24T15:24:28.740Z,37.38
2018-08-24T15:27:32.357Z,37.65
2018-08-24T15:30:36.012Z,37.79
2018-08-24T15:33:39.697Z,38.35
2018-08-24T15:36:43.364Z,38.46
2018-08-24T15:39:47.041Z,39.19
2018-08-24T15:42:50.748Z,38.65
2018-08-24T15:45:54.441Z,38.76
2018-08-24T15:48:58.092Z,38.37
2018-08-24T15:52:01.726Z,38.59
2018-08-24T15:55:05.415Z,38.76
2018-08-24T15:58:09.291Z,37.99
2018-08-24T16:01:12.946Z,38.77
2018-08-24T16:04:16.575Z,39.28
2018-08-24T16:07:20.246Z,39.72
2018-08-24T16:10:23.903Z,40.56
2018-08-24T16:13:27.562Z,43.79
2018-08-24T16:16:31.325Z,47.42
2018-08-24T16:19:34.972Z,49.13
2018-08-24T16:22:38.672Z,50.43
2018-08-24T16:25:42.497Z,50.38
2018-08-24T16:28:46.342Z,51.39
2018-08-24T16:31:50.203Z,50.79
2018-08-24T16:34:53.837Z,50.87
2018-08-24T16:37:57.511Z,50.13
2018-08-24T16:41:01.797Z,49.72
2018-08-24T16:44:07.970Z,49.47
2018-08-24T16:47:11.844Z,49.67
2018-08-24T16:50:15.711Z,49.68
2018-08-24T16:53:19.372Z,49.51
2018-08-24T16:56:23.122Z,48.99
2018-08-24T16:59:26.846Z,48.78
2018-08-24T17:02:30.551Z,48.58
2018-08-24T17:05:34.233Z,48.36
2018-08-24T17:08:37.864Z,48.04
2018-08-24T17:11:41.810Z,48.18
2018-08-24T17:14:45.457Z,48.07
2018-08-24T17:17:49.193Z,48.77
2018-08-24T17:20:52.798Z,48.13
2018-08-24T17:23:56.402Z,48.05
2018-08-24T17:27:00.134Z,48.86
2018-08-24T17:30:03.870Z,48.90
2018-08-24T17:33:07.678Z,49.02
2018-08-24T17:36:11.453Z,49.26
2018-08-24T17:39:15.171Z,49.52
2018-08-24T17:42:18.916Z,49.64
2018-08-24T17:45:22.693Z,49.90
2018-08-24T17:48:26.341Z,50.15
2018-08-24T17:51:30.218Z,50.87
2018-08-24T17:54:33.903Z,50.32
2018-08-24T17:57:37.611Z,50.65
2018-08-24T18:00:41.339Z,51.25
2018-08-24T18:03:45.091Z,51.80
2018-08-24T18:06:48.752Z,51.61
2018-08-24T18:09:52.434Z,52.08
2018-08-24T18:12:56.058Z,52.90
2018-08-24T18:15:59.703Z,53.31
2018-08-24T18:19:03.422Z,54.23
2018-08-24T18:22:07.172Z,53.55
2018-08-24T18:25:10.926Z,54.62
2018-08-24T18:28:14.557Z,54.67
2018-08-24T18:31:18.188Z,54.70
2018-08-24T18:34:21.924Z,56.15
2018-08-24T18:37:25.588Z,55.29
2018-08-24T18:40:29.285Z,55.40
2018-08-24T18:43:33.129Z,55.56
2018-08-24T18:46:36.765Z,56.14
2018-08-24T18:49:40.489Z,55.79
2018-08-24T18:52:44.374Z,55.97
2018-08-24T18:55:48.138Z,56.17
2018-08-24T18:58:51.976Z,56.42
2018-08-24T19:01:55.729Z,56.80
2018-08-24T19:04:59.461Z,57.12
2018-08-24T19:08:09.129Z,57.08
2018-08-24T19:11:18.109Z,57.68
2018-08-24T19:14:22.004Z,57.74
2018-08-24T19:17:30.934Z,58.78
2018-08-24T19:20:39.682Z,59.89
2018-08-24T19:23:43.432Z,60.53
2018-08-24T19:26:48.177Z,59.83
2018-08-24T19:29:57.104Z,59.94
2018-08-24T19:33:00.864Z,59.98
2018-08-24T19:36:04.582Z,61.06
2018-08-24T19:39:11.762Z,60.74
2018-08-24T19:42:20.548Z,61.28
2018-08-24T19:45:24.307Z,60.98
2018-08-24T19:48:33.095Z,61.74
2018-08-24T19:51:36.784Z,62.13
2018-08-24T19:54:40.508Z,62.62
2018-08-24T19:57:49.538Z,62.49
2018-08-24T20:00:53.352Z,63.66
2018-08-24T20:03:56.999Z,64.38
2018-08-24T20:07:06.074Z,65.07
2018-08-24T20:10:11.343Z,63.42
2018-08-24T20:13:15.128Z,63.47
2018-08-24T20:16:24.050Z,65.24
2018-08-24T20:19:28.353Z,67.19
2018-08-24T20:22:32.025Z,67.59
2018-08-24T20:25:35.748Z,68.12
2018-08-24T20:28:39.517Z,67.99
2018-08-24T20:31:43.196Z,69.51
2018-08-24T20:34:46.952Z,68.97
2018-08-24T20:37:50.633Z,71.40
2018-08-24T20:40:54.391Z,70.78
2018-08-24T20:43:58.053Z,70.90
2018-08-24T20:47:01.887Z,71.02
2018-08-24T20:50:05.588Z,70.76
2018-08-24T20:53:09.385Z,70.39
2018-08-24T20:56:13.026Z,70.91
2018-08-24T20:59:16.803Z,71.89
2018-08-24T21:02:20.447Z,68.63
2018-08-24T21:05:24.078Z,69.44
2018-08-24T21:08:27.812Z,70.46
2018-08-24T21:11:31.503Z,70.18
2018-08-24T21:14:35.332Z,70.28
2018-08-24T21:17:39.114Z,70.34
2018-08-24T21:20:42.825Z,70.04
2018-08-24T21:23:46.689Z,66.53
2018-08-24T21:26:50.604Z,64.65
2018-08-24T21:29:54.415Z,63.30
2018-08-24T21:32:58.176Z,64.74
2018-08-24T21:36:01.848Z,64.42
2018-08-24T21:39:08.790Z,63.90
2018-08-24T21:42:12.779Z,64.92
2018-08-24T21:45:16.547Z,64.75
2018-08-24T21:48:20.219Z,64.98
2018-08-24T21:51:23.861Z,67.63
2018-08-24T21:54:27.546Z,67.26
2018-08-24T21:57:31.263Z,65.54
2018-08-24T22:00:39.172Z,67.56
2018-08-24T22:03:42.766Z,66.32
2018-08-24T22:06:46.531Z,66.56
2018-08-24T22:09:50.164Z,66.86
2018-08-24T22:12:53.795Z,67.64
2018-08-24T22:15:57.529Z,66.84
2018-08-24T22:19:01.538Z,67.42
2018-08-24T22:22:05.491Z,68.03
2018-08-24T22:25:09.214Z,69.12
2018-08-24T22:28:12.930Z,69.05
2018-08-24T22:31:16.536Z,70.13
2018-08-24T22:34:20.320Z,70.55
2018-08-24T22:37:23.981Z,67.29
2018-08-24T22:40:27.630Z,67.96
2018-08-24T22:43:35.811Z,68.43
2018-08-24T22:46:39.431Z,71.99
2018-08-24T22:49:43.086Z,69.18
2018-08-24T22:52:46.680Z,72.17
2018-08-24T22:55:50.551Z,71.95
2018-08-24T22:58:54.218Z,72.32
2018-08-24T23:01:57.937Z,72.01
2018-08-24T23:05:01.548Z,72.14
2018-08-24T23:08:05.324Z,70.67
2018-08-24T23:11:08.949Z,67.49
2018-08-24T23:14:12.725Z,69.97
2018-08-24T23:17:16.540Z,74.07
2018-08-24T23:20:20.144Z,74.23
2018-08-24T23:23:23.824Z,74.18
2018-08-24T23:26:27.554Z,73.72
2018-08-24T23:29:31.243Z,71.76
2018-08-24T23:32:34.984Z,72.41
2018-08-24T23:35:38.644Z,72.83
2018-08-24T23:38:42.304Z,72.98
2018-08-24T23:41:46.139Z,72.59
2018-08-24T23:44:49.816Z,72.39
2018-08-24T23:47:53.429Z,72.71
2018-08-24T23:50:57.140Z,71.40
2018-08-24T23:54:00.845Z,70.84
2018-08-24T23:57:04.520Z,69.92
